createdAt,value
2019-01-29T00:00:00.322Z,84.41
2019-01-29T00:02:26.181Z,84.50
2019-01-29T00:04:52.028Z,84.49
2019-01-29T00:07:18.068Z,84.26
2019-01-29T00:09:43.900Z,84.33
2019-01-29T00:12:09.718Z,84.39
2019-01-29T00:14:35.570Z,84.37
2019-01-29T00:17:01.408Z,84.29
2019-01-29T00:19:27.287Z,84.39
2019-01-29T00:21:53.232Z,84.25
2019-01-29T00:24:19.088Z,84.45
2019-01-29T00:26:45.018Z,84.55
2019-01-29T00:29:10.854Z,84.48
2019-01-29T00:31:36.678Z,84.65
2019-01-29T00:34:02.629Z,84.66
2019-01-29T00:36:28.451Z,84.69
2019-01-29T00:38:54.384Z,84.72
2019-01-29T00:41:20.324Z,84.61
2019-01-29T00:43:46.149Z,84.46
2019-01-29T00:46:12.014Z,84.66
2019-01-29T00:48:37.836Z,84.77
2019-01-29T00:51:03.782Z,84.61
2019-01-29T00:53:29.616Z,84.58
2019-01-29T00:55:55.587Z,84.87
2019-01-29T00:58:21.509Z,85.04
2019-01-29T01:00:47.367Z,85.11
2019-01-29T01:03:13.188Z,84.95
2019-01-29T01:05:39.130Z,84.82
2019-01-29T01:08:05.054Z,85.01
2019-01-29T01:10:30.901Z,85.07
2019-01-29T01:12:56.739Z,85.01
2019-01-29T01:15:22.652Z,84.98
2019-01-29T01:17:48.596Z,84.84
2019-01-29T01:20:17.027Z,85.17
2019-01-29T01:22:50.691Z,85.23
2019-01-29T01:25:12.880Z,85.06
2019-01-29T01:27:38.827Z,85.02
2019-01-29T01:30:11.166Z,85.00
2019-01-29T01:32:37.013Z,84.83
2019-01-29T01:35:03.646Z,84.58
2019-01-29T01:37:29.471Z,84.46
2019-01-29T01:39:55.404Z,84.36
2019-01-29T01:42:21.253Z,84.20
2019-01-29T01:44:47.087Z,84.15
2019-01-29T01:47:15.697Z,84.24
2019-01-29T01:49:41.555Z,84.42
2019-01-29T01:52:07.531Z,84.88
2019-01-29T01:54:33.348Z,85.01
2019-01-29T01:56:59.266Z,85.09
2019-01-29T01:59:25.236Z,85.34
2019-01-29T02:01:51.150Z,85.54
2019-01-29T02:04:17.102Z,85.24
2019-01-29T02:06:42.955Z,85.14
2019-01-29T02:09:08.887Z,85.05
2019-01-29T02:11:34.703Z,84.64
2019-01-29T02:14:00.548Z,84.51
2019-01-29T02:16:26.472Z,84.30
2019-01-29T02:18:55.474Z,84.14
2019-01-29T02:21:21.288Z,84.23
2019-01-29T02:23:47.133Z,84.25
2019-01-29T02:26:12.955Z,84.42
2019-01-29T02:28:38.785Z,84.27
2019-01-29T02:31:04.742Z,84.35
2019-01-29T02:33:30.555Z,84.44
2019-01-29T02:35:56.410Z,84.53
2019-01-29T02:38:22.278Z,84.48
2019-01-29T02:40:48.065Z,84.60
2019-01-29T02:43:13.964Z,84.66
2019-01-29T02:45:39.937Z,84.66
2019-01-29T02:48:05.758Z,84.65
2019-01-29T02:50:31.674Z,84.28
2019-01-29T02:52:57.440Z,84.08
2019-01-29T02:55:23.396Z,84.29
2019-01-29T02:57:49.251Z,84.38
2019-01-29T03:00:18.014Z,84.71
2019-01-29T03:02:43.825Z,84.78
2019-01-29T03:05:11.948Z,84.96
2019-01-29T03:07:38.188Z,85.14
2019-01-29T03:10:07.875Z,85.21
2019-01-29T03:12:33.820Z,85.10
2019-01-29T03:14:59.728Z,84.93
2019-01-29T03:17:25.637Z,84.79
2019-01-29T03:19:51.515Z,84.45
2019-01-29T03:22:17.451Z,84.33
2019-01-29T03:24:43.270Z,84.08
2019-01-29T03:27:09.109Z,84.11
2019-01-29T03:29:35.364Z,84.03
2019-01-29T03:32:01.204Z,84.12
2019-01-29T03:34:27.015Z,84.19
2019-01-29T03:36:52.870Z,84.36
2019-01-29T03:39:18.930Z,84.35
2019-01-29T03:41:44.755Z,84.54
2019-01-29T03:44:10.708Z,84.82
2019-01-29T03:46:36.513Z,84.57
2019-01-29T03:49:02.667Z,84.59
2019-01-29T03:51:28.612Z,84.65
2019-01-29T03:53:54.470Z,84.67
2019-01-29T03:56:20.311Z,84.33
2019-01-29T03:58:46.152Z,84.23
2019-01-29T04:01:12.161Z,84.23
2019-01-29T04:03:38.020Z,84.25
2019-01-29T04:06:03.948Z,84.53
2019-01-29T04:08:29.813Z,84.54
2019-01-29T04:10:55.631Z,84.31
2019-01-29T04:13:21.492Z,84.26
2019-01-29T04:15:47.423Z,84.46
2019-01-29T04:18:13.336Z,84.54
2019-01-29T04:20:39.215Z,84.32
2019-01-29T04:23:05.052Z,84.35
2019-01-29T04:25:30.900Z,84.27
2019-01-29T04:27:56.725Z,84.10
2019-01-29T04:30:23.284Z,84.14
2019-01-29T04:32:49.213Z,84.07
2019-01-29T04:35:15.148Z,84.17
2019-01-29T04:37:41.372Z,84.33
2019-01-29T04:40:10.543Z,84.28
2019-01-29T04:42:36.480Z,84.26
2019-01-29T04:45:05.730Z,84.43
2019-01-29T04:47:31.592Z,84.41
2019-01-29T04:49:57.406Z,84.41
2019-01-29T04:52:23.348Z,84.30
2019-01-29T04:54:49.272Z,84.36
2019-01-29T04:57:15.109Z,84.36
2019-01-29T04:59:40.950Z,84.17
2019-01-29T05:02:06.984Z,84.09
2019-01-29T05:04:32.805Z,83.83
2019-01-29T05:06:58.678Z,83.60
2019-01-29T05:09:24.514Z,83.61
2019-01-29T05:11:50.353Z,84.25
2019-01-29T05:14:16.175Z,84.20
2019-01-29T05:16:42.014Z,83.98
2019-01-29T05:19:07.887Z,84.21
2019-01-29T05:21:33.744Z,84.13
2019-01-29T05:24:06.670Z,83.97
2019-01-29T05:26:27.296Z,83.62
2019-01-29T05:28:53.144Z,83.85
2019-01-29T05:31:18.953Z,83.92
2019-01-29T05:33:44.804Z,83.71
2019-01-29T05:36:10.735Z,83.88
2019-01-29T05:38:36.585Z,83.81
2019-01-29T05:41:02.403Z,83.79
2019-01-29T05:43:28.251Z,83.86
2019-01-29T05:45:54.171Z,83.74
2019-01-29T05:48:20.016Z,83.83
2019-01-29T05:50:45.934Z,83.95
2019-01-29T05:53:11.997Z,83.94
2019-01-29T05:55:37.838Z,83.79
2019-01-29T05:58:03.777Z,83.89
2019-01-29T06:00:33.435Z,83.92
2019-01-29T06:02:59.245Z,83.85
2019-01-29T06:05:25.681Z,83.77
2019-01-29T06:07:51.515Z,83.74
2019-01-29T06:10:18.260Z,83.77
2019-01-29T06:12:44.180Z,84.05
2019-01-29T06:15:13.120Z,84.65
2019-01-29T06:17:38.938Z,84.96
2019-01-29T06:20:08.632Z,85.59
2019-01-29T06:22:34.555Z,85.83
2019-01-29T06:25:00.396Z,86.03
2019-01-29T06:27:26.226Z,86.00
2019-01-29T06:29:52.057Z,85.92
2019-01-29T06:32:17.895Z,85.83
2019-01-29T06:34:43.765Z,85.56
2019-01-29T06:37:09.619Z,85.41
2019-01-29T06:39:35.624Z,85.29
2019-01-29T06:42:01.391Z,85.21
2019-01-29T06:44:27.251Z,85.19
2019-01-29T06:46:53.125Z,85.29
2019-01-29T06:49:19.063Z,85.35
2019-01-29T06:51:44.960Z,85.32
2019-01-29T06:54:10.809Z,85.08
2019-01-29T06:56:36.738Z,84.99
2019-01-29T06:59:03.059Z,85.02
2019-01-29T07:01:31.979Z,85.14
2019-01-29T07:03:57.802Z,85.39
2019-01-29T07:06:23.644Z,85.40
2019-01-29T07:08:49.561Z,85.45
2019-01-29T07:11:15.523Z,85.53
2019-01-29T07:13:41.346Z,85.55
2019-01-29T07:16:14.976Z,85.27
2019-01-29T07:18:42.719Z,85.18
2019-01-29T07:21:09.487Z,85.00
2019-01-29T07:23:35.419Z,84.91
2019-01-29T07:26:01.541Z,84.56
2019-01-29T07:28:27.361Z,84.50
2019-01-29T07:30:53.301Z,84.13
2019-01-29T07:33:19.516Z,84.12
2019-01-29T07:35:45.440Z,84.10
2019-01-29T07:38:11.412Z,84.10
2019-01-29T07:40:37.244Z,83.45
2019-01-29T07:43:03.210Z,83.39
2019-01-29T07:45:29.146Z,83.53
2019-01-29T07:47:55.031Z,83.37
2019-01-29T07:50:20.894Z,83.22
2019-01-29T07:52:46.843Z,83.52
2019-01-29T07:55:12.776Z,83.25
2019-01-29T07:57:38.595Z,82.65
2019-01-29T08:00:15.400Z,82.34
2019-01-29T08:02:41.235Z,82.42
2019-01-29T08:05:09.391Z,82.14
2019-01-29T08:07:35.203Z,82.37
2019-01-29T08:10:01.153Z,81.62
2019-01-29T08:12:26.979Z,81.31
2019-01-29T08:14:52.835Z,80.63
2019-01-29T08:17:18.670Z,80.55
2019-01-29T08:19:44.689Z,80.65
2019-01-29T08:22:10.625Z,80.71
2019-01-29T08:24:36.458Z,80.15
2019-01-29T08:27:02.287Z,80.05
2019-01-29T08:29:28.130Z,79.81
2019-01-29T08:31:53.956Z,79.49
2019-01-29T08:34:19.895Z,79.22
2019-01-29T08:36:45.831Z,79.46
2019-01-29T08:39:11.698Z,79.31
2019-01-29T08:41:37.511Z,79.50
2019-01-29T08:44:04.633Z,79.61
2019-01-29T08:46:30.692Z,79.79
2019-01-29T08:48:56.520Z,78.66
2019-01-29T08:51:22.459Z,78.52
2019-01-29T08:53:48.278Z,78.22
2019-01-29T08:56:14.145Z,77.74
2019-01-29T08:58:39.960Z,77.61
2019-01-29T09:01:05.903Z,77.67
2019-01-29T09:03:31.851Z,77.61
2019-01-29T09:05:57.692Z,77.08
2019-01-29T09:08:23.508Z,77.21
2019-01-29T09:10:49.760Z,76.78
2019-01-29T09:13:15.591Z,76.66
2019-01-29T09:15:41.423Z,76.87
2019-01-29T09:18:07.379Z,76.18
2019-01-29T09:20:36.031Z,75.87
2019-01-29T09:23:01.984Z,75.70
2019-01-29T09:25:27.905Z,75.02
2019-01-29T09:27:53.733Z,74.25
2019-01-29T09:30:20.960Z,74.06
2019-01-29T09:32:46.933Z,73.65
2019-01-29T09:35:13.249Z,73.57
2019-01-29T09:37:39.108Z,72.69
2019-01-29T09:40:17.343Z,72.16
2019-01-29T09:42:43.683Z,72.30
2019-01-29T09:45:12.807Z,71.79
2019-01-29T09:47:38.763Z,71.56
2019-01-29T09:50:08.205Z,71.76
2019-01-29T09:52:34.132Z,72.33
2019-01-29T09:54:59.998Z,72.91
2019-01-29T09:57:25.827Z,72.47
2019-01-29T09:59:51.683Z,71.65
2019-01-29T10:02:17.496Z,70.81
2019-01-29T10:04:43.450Z,70.90
2019-01-29T10:07:09.293Z,70.23
2019-01-29T10:09:35.230Z,68.63
2019-01-29T10:12:01.042Z,66.31
2019-01-29T10:14:26.900Z,66.22
2019-01-29T10:16:52.748Z,66.58
2019-01-29T10:19:18.626Z,65.42
2019-01-29T10:21:44.477Z,61.34
2019-01-29T10:24:10.328Z,55.14
2019-01-29T10:26:36.158Z,53.67
2019-01-29T10:29:02.121Z,50.80
2019-01-29T10:31:27.982Z,48.96
2019-01-29T10:33:53.996Z,49.11
2019-01-29T10:36:19.971Z,46.98
2019-01-29T10:38:45.904Z,45.83
2019-01-29T10:41:11.880Z,49.80
2019-01-29T10:43:37.692Z,48.64
2019-01-29T10:46:03.644Z,47.21
2019-01-29T10:48:29.487Z,44.04
2019-01-29T10:50:55.540Z,48.52
2019-01-29T10:53:21.378Z,50.80
2019-01-29T10:55:47.766Z,50.60
2019-01-29T10:58:13.779Z,52.15
2019-01-29T11:00:39.716Z,54.23
2019-01-29T11:03:06.844Z,53.46
2019-01-29T11:05:33.071Z,53.31
2019-01-29T11:07:59.432Z,51.31
2019-01-29T11:10:25.359Z,45.23
2019-01-29T11:12:51.297Z,41.46
2019-01-29T11:15:26.705Z,39.89
2019-01-29T11:17:52.661Z,42.37
2019-01-29T11:20:18.817Z,41.16
2019-01-29T11:22:44.779Z,37.38
2019-01-29T11:25:14.199Z,34.70
2019-01-29T11:27:40.159Z,32.42
2019-01-29T11:30:15.600Z,33.20
2019-01-29T11:32:41.534Z,31.44
2019-01-29T11:35:09.579Z,28.67
2019-01-29T11:37:35.605Z,32.02
2019-01-29T11:40:02.039Z,32.85
2019-01-29T11:42:27.885Z,37.99
2019-01-29T11:44:53.808Z,38.61
2019-01-29T11:47:19.760Z,38.04
2019-01-29T11:49:45.579Z,33.97
2019-01-29T11:52:11.420Z,31.19
2019-01-29T11:54:37.259Z,34.64
2019-01-29T11:57:03.291Z,33.07
2019-01-29T11:59:29.132Z,33.53
2019-01-29T12:01:54.960Z,34.72
2019-01-29T12:04:20.814Z,36.98
2019-01-29T12:06:46.633Z,40.78
2019-01-29T12:09:12.604Z,41.51
2019-01-29T12:11:38.583Z,41.51
2019-01-29T12:14:04.476Z,42.02
2019-01-29T12:16:30.303Z,41.39
2019-01-29T12:18:58.327Z,37.99
2019-01-29T12:21:24.212Z,40.31
2019-01-29T12:23:50.123Z,41.63
2019-01-29T12:26:15.984Z,43.79
2019-01-29T12:28:41.900Z,43.46
2019-01-29T12:31:07.766Z,44.21
2019-01-29T12:33:33.715Z,44.74
2019-01-29T12:35:59.562Z,44.90
2019-01-29T12:38:25.396Z,44.58
2019-01-29T12:40:51.334Z,40.65
2019-01-29T12:43:17.168Z,35.11
2019-01-29T12:45:43.220Z,27.84
2019-01-29T12:48:09.057Z,26.39
2019-01-29T12:50:35.817Z,23.84
2019-01-29T12:53:06.647Z,26.63
2019-01-29T12:55:33.302Z,31.00
2019-01-29T12:57:59.237Z,25.62
2019-01-29T13:00:27.506Z,23.45
2019-01-29T13:02:53.352Z,21.67
2019-01-29T13:05:19.884Z,20.28
2019-01-29T13:07:45.754Z,20.54
2019-01-29T13:10:18.245Z,20.09
2019-01-29T13:12:44.346Z,20.22
2019-01-29T13:15:13.988Z,21.63
2019-01-29T13:17:39.845Z,21.18
2019-01-29T13:20:09.442Z,19.82
2019-01-29T13:22:35.305Z,20.20
2019-01-29T13:25:01.245Z,21.32
2019-01-29T13:27:27.145Z,21.79
2019-01-29T13:29:52.987Z,22.43
2019-01-29T13:32:18.829Z,21.22
2019-01-29T13:34:45.003Z,24.23
2019-01-29T13:37:10.970Z,25.06
2019-01-29T13:39:36.954Z,24.48
2019-01-29T13:42:02.893Z,27.28
2019-01-29T13:44:28.755Z,27.60
2019-01-29T13:46:54.598Z,28.22
2019-01-29T13:49:20.436Z,28.42
2019-01-29T13:51:46.328Z,25.06
2019-01-29T13:54:12.311Z,22.83
2019-01-29T13:56:39.241Z,23.38
2019-01-29T13:59:05.520Z,22.98
2019-01-29T14:01:31.398Z,25.28
2019-01-29T14:04:05.797Z,24.42
2019-01-29T14:06:25.024Z,23.82
2019-01-29T14:08:50.881Z,22.71
2019-01-29T14:11:16.841Z,24.80
2019-01-29T14:13:42.953Z,23.73
2019-01-29T14:16:08.790Z,22.41
2019-01-29T14:18:34.730Z,21.23
2019-01-29T14:21:00.572Z,21.67
2019-01-29T14:23:26.420Z,23.89
2019-01-29T14:25:52.285Z,28.78
2019-01-29T14:28:18.245Z,31.74
2019-01-29T14:30:44.233Z,35.10
2019-01-29T14:33:10.176Z,38.09
2019-01-29T14:35:36.147Z,38.06
2019-01-29T14:38:14.407Z,38.14
2019-01-29T14:40:40.322Z,35.53
2019-01-29T14:43:18.270Z,34.85
2019-01-29T14:45:47.199Z,34.16
2019-01-29T14:48:13.126Z,32.68
2019-01-29T14:50:39.051Z,31.36
2019-01-29T14:53:05.017Z,28.69
2019-01-29T14:55:30.903Z,29.14
2019-01-29T14:57:56.889Z,28.76
2019-01-29T15:00:26.522Z,34.69
2019-01-29T15:02:52.510Z,39.91
2019-01-29T15:05:18.337Z,41.57
2019-01-29T15:07:44.182Z,45.33
2019-01-29T15:10:21.922Z,46.13
2019-01-29T15:12:47.797Z,46.59
2019-01-29T15:15:17.157Z,45.99
2019-01-29T15:17:45.020Z,47.41
2019-01-29T15:20:11.592Z,47.83
2019-01-29T15:22:37.712Z,47.98
2019-01-29T15:25:07.392Z,48.76
2019-01-29T15:27:33.331Z,48.76
2019-01-29T15:29:59.282Z,49.09
2019-01-29T15:32:25.153Z,49.45
2019-01-29T15:34:50.987Z,50.86
2019-01-29T15:37:16.920Z,51.64
2019-01-29T15:39:42.760Z,51.28
2019-01-29T15:42:08.707Z,51.51
2019-01-29T15:44:34.682Z,51.78
2019-01-29T15:47:00.616Z,52.67
2019-01-29T15:49:26.460Z,52.44
2019-01-29T15:51:52.292Z,52.42
2019-01-29T15:54:18.139Z,52.40
2019-01-29T15:56:43.986Z,52.38
2019-01-29T15:59:09.944Z,52.15
2019-01-29T16:01:35.794Z,51.91
2019-01-29T16:04:02.060Z,52.31
2019-01-29T16:06:27.904Z,52.64
2019-01-29T16:08:53.865Z,52.81
2019-01-29T16:11:19.714Z,52.93
2019-01-29T16:13:45.694Z,53.70
2019-01-29T16:16:12.023Z,54.43
2019-01-29T16:18:37.914Z,55.04
2019-01-29T16:21:04.533Z,55.78
2019-01-29T16:23:30.459Z,56.34
2019-01-29T16:25:56.324Z,57.13
2019-01-29T16:28:22.279Z,57.35
2019-01-29T16:30:48.121Z,57.47
2019-01-29T16:33:14.741Z,57.70
2019-01-29T16:35:42.109Z,58.34
2019-01-29T16:38:08.441Z,59.34
2019-01-29T16:40:40.414Z,59.20
2019-01-29T16:43:06.344Z,60.06
2019-01-29T16:45:35.861Z,60.34
2019-01-29T16:48:03.589Z,60.12
2019-01-29T16:50:29.585Z,60.71
2019-01-29T16:52:55.619Z,60.67
2019-01-29T16:55:22.378Z,61.46
2019-01-29T16:57:48.446Z,61.10
2019-01-29T17:00:23.352Z,60.45
2019-01-29T17:02:49.216Z,60.38
2019-01-29T17:05:15.140Z,61.03
2019-01-29T17:07:41.439Z,61.38
2019-01-29T17:10:11.109Z,61.44
2019-01-29T17:12:37.078Z,62.31
2019-01-29T17:15:06.723Z,62.84
2019-01-29T17:17:32.697Z,63.41
2019-01-29T17:19:58.525Z,63.64
2019-01-29T17:22:24.427Z,63.47
2019-01-29T17:24:50.274Z,63.61
2019-01-29T17:27:16.316Z,64.29
2019-01-29T17:29:42.357Z,64.08
2019-01-29T17:32:08.227Z,64.24
2019-01-29T17:34:34.202Z,64.77
2019-01-29T17:37:00.103Z,64.53
2019-01-29T17:39:26.079Z,64.78
2019-01-29T17:41:52.183Z,64.63
2019-01-29T17:44:18.124Z,65.04
2019-01-29T17:46:44.367Z,64.51
2019-01-29T17:49:10.250Z,64.39
2019-01-29T17:51:36.216Z,64.98
2019-01-29T17:54:02.373Z,64.49
2019-01-29T17:56:28.324Z,65.48
2019-01-29T17:58:54.311Z,65.19
2019-01-29T18:01:20.261Z,65.63
2019-01-29T18:03:46.137Z,65.65
2019-01-29T18:06:12.376Z,65.77
2019-01-29T18:08:38.268Z,66.12
2019-01-29T18:11:04.204Z,66.18
2019-01-29T18:13:30.023Z,66.34
2019-01-29T18:15:55.981Z,66.41
2019-01-29T18:18:21.935Z,66.75
2019-01-29T18:20:47.847Z,66.59
2019-01-29T18:23:13.900Z,66.62
2019-01-29T18:25:39.880Z,66.21
2019-01-29T18:28:08.448Z,66.29
2019-01-29T18:30:35.040Z,66.43
2019-01-29T18:33:00.971Z,66.67
2019-01-29T18:35:27.159Z,67.14
2019-01-29T18:37:53.106Z,66.98
2019-01-29T18:40:25.517Z,67.18
2019-01-29T18:42:51.355Z,67.85
2019-01-29T18:45:17.351Z,67.61
2019-01-29T18:47:43.581Z,67.46
2019-01-29T18:50:12.777Z,67.44
2019-01-29T18:52:38.714Z,68.03
2019-01-29T18:55:07.013Z,67.65
2019-01-29T18:57:33.147Z,67.78
2019-01-29T18:59:59.541Z,67.81
2019-01-29T19:02:25.724Z,67.87
2019-01-29T19:04:52.380Z,68.06
2019-01-29T19:07:18.387Z,67.98
2019-01-29T19:09:44.350Z,68.56
2019-01-29T19:12:10.301Z,68.74
2019-01-29T19:14:36.435Z,68.54
2019-01-29T19:17:03.476Z,69.02
2019-01-29T19:19:29.317Z,69.17
2019-01-29T19:21:57.704Z,69.59
2019-01-29T19:24:23.996Z,69.51
2019-01-29T19:26:50.002Z,70.04
2019-01-29T19:29:15.935Z,69.87
2019-01-29T19:31:42.324Z,69.97
2019-01-29T19:34:08.276Z,70.22
2019-01-29T19:36:34.467Z,70.57
2019-01-29T19:39:00.420Z,70.66
2019-01-29T19:41:26.939Z,70.68
2019-01-29T19:43:52.882Z,70.59
2019-01-29T19:46:18.929Z,70.74
2019-01-29T19:48:44.818Z,70.79
2019-01-29T19:51:10.788Z,70.50
2019-01-29T19:53:37.859Z,70.57
2019-01-29T19:56:04.258Z,70.49
2019-01-29T19:58:32.281Z,69.98
2019-01-29T20:00:57.975Z,70.04
2019-01-29T20:03:24.251Z,70.05
2019-01-29T20:05:50.177Z,70.13
2019-01-29T20:08:16.400Z,70.00
2019-01-29T20:10:42.252Z,69.69
2019-01-29T20:13:08.303Z,69.42
2019-01-29T20:15:34.345Z,69.15
2019-01-29T20:18:00.362Z,69.39
2019-01-29T20:20:32.420Z,69.04
2019-01-29T20:23:07.681Z,68.99
2019-01-29T20:25:26.410Z,68.90
2019-01-29T20:27:53.148Z,68.40
2019-01-29T20:30:31.450Z,68.29
2019-01-29T20:32:57.512Z,68.27
2019-01-29T20:35:23.620Z,67.74
2019-01-29T20:37:50.487Z,67.74
2019-01-29T20:40:19.069Z,67.69
2019-01-29T20:42:45.122Z,67.79
2019-01-29T20:45:13.107Z,67.76
2019-01-29T20:47:39.054Z,67.71
2019-01-29T20:50:11.883Z,67.72
2019-01-29T20:52:37.705Z,67.47
2019-01-29T20:55:05.400Z,67.86
2019-01-29T20:57:33.316Z,68.11
2019-01-29T20:59:59.224Z,67.44
2019-01-29T21:02:25.071Z,67.04
2019-01-29T21:04:50.948Z,67.32
2019-01-29T21:07:16.800Z,67.29
2019-01-29T21:09:43.106Z,67.44
2019-01-29T21:12:09.085Z,67.48
2019-01-29T21:14:35.112Z,67.59
2019-01-29T21:17:00.974Z,67.07
2019-01-29T21:19:26.817Z,66.72
2019-01-29T21:21:52.854Z,66.33
2019-01-29T21:24:18.692Z,66.22
2019-01-29T21:26:44.705Z,66.54
2019-01-29T21:29:10.649Z,66.17
2019-01-29T21:31:36.650Z,65.77
2019-01-29T21:34:02.605Z,66.20
2019-01-29T21:36:30.400Z,65.62
2019-01-29T21:38:56.306Z,65.71
2019-01-29T21:41:22.162Z,65.37
2019-01-29T21:43:48.142Z,65.46
2019-01-29T21:46:14.104Z,66.19
2019-01-29T21:48:39.961Z,66.10
2019-01-29T21:51:05.857Z,66.43
2019-01-29T21:53:31.733Z,66.15
2019-01-29T21:55:57.553Z,66.32
2019-01-29T21:58:23.419Z,66.63
2019-01-29T22:00:49.480Z,66.63
2019-01-29T22:03:15.832Z,66.49
2019-01-29T22:05:41.779Z,66.21
2019-01-29T22:08:07.768Z,66.71
2019-01-29T22:10:33.680Z,66.83
2019-01-29T22:12:59.665Z,66.94
2019-01-29T22:15:25.673Z,67.13
2019-01-29T22:17:51.672Z,66.65
2019-01-29T22:20:22.421Z,67.21
2019-01-29T22:22:48.768Z,67.23
2019-01-29T22:25:22.560Z,67.21
2019-01-29T22:27:48.526Z,67.50
2019-01-29T22:30:23.980Z,67.89
2019-01-29T22:32:49.905Z,67.75
2019-01-29T22:35:15.753Z,68.12
2019-01-29T22:37:41.797Z,67.90
2019-01-29T22:40:17.309Z,67.88
2019-01-29T22:42:43.265Z,68.25
2019-01-29T22:45:14.772Z,67.95
2019-01-29T22:47:40.592Z,68.34
2019-01-29T22:50:21.834Z,68.64
2019-01-29T22:52:47.652Z,68.74
2019-01-29T22:55:13.612Z,68.44
2019-01-29T22:57:39.449Z,68.46
2019-01-29T23:00:22.114Z,68.53
2019-01-29T23:02:47.933Z,68.81
2019-01-29T23:05:13.931Z,69.26
2019-01-29T23:07:39.778Z,68.81
2019-01-29T23:10:09.458Z,69.12
2019-01-29T23:12:35.284Z,69.46
2019-01-29T23:15:02.364Z,69.23
2019-01-29T23:17:28.306Z,69.13
2019-01-29T23:19:54.179Z,69.25
2019-01-29T23:22:20.115Z,69.22
2019-01-29T23:24:46.280Z,69.66
2019-01-29T23:27:12.416Z,69.62
2019-01-29T23:29:43.680Z,69.61
2019-01-29T23:32:06.089Z,69.93
2019-01-29T23:34:32.048Z,69.50
2019-01-29T23:36:58.014Z,70.20
2019-01-29T23:39:23.862Z,69.49
2019-01-29T23:41:49.795Z,69.51
2019-01-29T23:44:15.727Z,69.71
2019-01-29T23:46:41.683Z,69.86
2019-01-29T23:49:07.633Z,70.00
2019-01-29T23:51:33.487Z,70.01
2019-01-29T23:53:59.316Z,69.94
2019-01-29T23:56:25.600Z,69.85
2019-01-29T23:58:51.447Z,70.36
